Impacts TAF Board
For situational awareness. Not to be used for flight planning purposes.
IDs:

KGPT - Gulfport-Biloxi Intl, MS, US

Issued at 1335 UTC 01 Mar 2021
Updated at 1714 UTC 01 Mar 2021
Potential Impact None Slight Moderate High
Time1653Z 01/18Z 01/19Z 01/20Z 01/21Z 01/22Z 01/23Z 02/00Z 02/01Z 02/02Z 02/03Z 02/04Z 02/05Z 02/06Z>>
Type OBS PRVL PRVL PRVL PRVL PRVL PRVL PRVL PRVL PRVL PRVL PRVL PRVL PRVL
VIS 10 >6 >6 >6 >6 >6 >6 >6 >6 >6 >6 >6 >6 >6
CIG 19 45 45 45 25 25 25 45 45 45 45 45 45 45
Cover BKN BKN BKN BKN BKN BKN BKN OVC OVC OVC OVC OVC OVC OVC
FltCat MVFR VFR VFR VFR MVFR MVFR MVFR VFR VFR VFR VFR VFR VFR VFR
WX -- -- -- -- -SHRA -SHRA -SHRA -SHRA -SHRA -SHRA -SHRA -SHRA -SHRA -SHRA
WDir 150 VRB VRB VRB 30 30 30 40 40 40 40 40 40 40
WSpd 5 4 4 4 12 12 12 12 12 12 12 12 12 12
WGst -- -- -- -- -- -- -- 20 20 20 20 20 20 20
Raw TAF
KGPT 011335Z 0114/0212 00000KT 4SM BR SCT002 SCT006 OVC100
  FM011600 VRB04KT P6SM BKN045
  FM012100 03012KT P6SM -SHRA BKN025
  FM020000 04012G20KT P6SM -SHRA OVC045
  FM020700 04010G18KT P6SM -SHRA OVC015


Raw METAR
KGPT 011653Z 15005KT 10SM BKN019 BKN023 24/21 A3001 RMK AO2 SLP161 T02440206
KGPT 011642Z 16009KT 10SM BKN021 25/21 A3001 RMK AO2 T02500206
KGPT 011553Z 27008KT 10SM FEW018 26/21 A3001 RMK AO2 SLP163 T02560211 $
KGPT 011453Z 00000KT 10SM SCT003 23/21 A3002 RMK AO2 SLP166 T02280211 51008

METAR Board
Radar Display
Forecast Discussion
For situational awareness. Not to be used for flight planning purposes.